Terminal Aerodrome Forecast
Issued by NWS Cleveland, OH

Home | Current Version | Previous Version | Text Only | Print | Product List | Glossary Off
Versions: 1 2 3 4 5 6 7 8 9 10 11 12 13

724
FTUS41 KCLE 161001 AAA
TAFTOL
TAF AMD
KTOL 161001Z 1610/1706 28005KT P6SM VCSH SCT050 OVC070
      TEMPO 1610/1611 -SHRA BKN035
     FM161300 28007KT P6SM BKN060
     FM170100 22003KT P6SM SCT040=

USA.gov is the U.S. government's official web portal to all federal, state and local government web resources and services.